createdAt,value
2018-05-03T00:01:49.922Z,9.77
2018-05-03T00:04:17.457Z,10.90
2018-05-03T00:06:45.018Z,9.13
2018-05-03T00:09:12.546Z,9.90
2018-05-03T00:11:40.068Z,11.80
2018-05-03T00:14:08.383Z,10.00
2018-05-03T00:16:35.919Z,11.10
2018-05-03T00:19:03.512Z,9.87
2018-05-03T00:21:31.035Z,10.10
2018-05-03T00:23:58.577Z,11.77
2018-05-03T00:26:26.866Z,10.73
2018-05-03T00:28:54.406Z,14.60
2018-05-03T00:31:21.936Z,10.63
2018-05-03T00:33:49.489Z,11.63
2018-05-03T00:36:17.012Z,12.10
2018-05-03T00:38:44.620Z,10.93
2018-05-03T00:41:12.276Z,11.47
2018-05-03T00:43:39.827Z,11.30
2018-05-03T00:46:07.365Z,11.77
2018-05-03T00:48:34.911Z,11.27
2018-05-03T00:51:02.448Z,13.70
2018-05-03T00:53:30.025Z,12.10
2018-05-03T00:55:57.559Z,10.20
2018-05-03T00:58:26.189Z,10.53
2018-05-03T01:00:53.736Z,11.43
2018-05-03T01:03:22.039Z,10.70
2018-05-03T01:05:49.564Z,11.53
2018-05-03T01:08:17.877Z,10.60
2018-05-03T01:10:45.411Z,11.70
2018-05-03T01:13:12.957Z,14.03
2018-05-03T01:15:40.484Z,10.57
2018-05-03T01:18:08.033Z,12.53
2018-05-03T01:20:35.567Z,10.60
2018-05-03T01:23:03.109Z,13.37
2018-05-03T01:25:30.721Z,13.63
2018-05-03T01:27:58.255Z,11.57
2018-05-03T01:30:25.798Z,11.90
2018-05-03T01:32:53.327Z,10.63
2018-05-03T01:35:32.719Z,13.30
2018-05-03T01:38:01.013Z,11.23
2018-05-03T01:40:28.550Z,11.07
2018-05-03T01:42:56.082Z,11.30
2018-05-03T01:45:23.621Z,11.63
2018-05-03T01:47:51.159Z,11.27
2018-05-03T01:50:18.707Z,10.57
2018-05-03T01:52:46.273Z,12.63
2018-05-03T01:55:13.854Z,11.53
2018-05-03T01:57:41.376Z,11.43
2018-05-03T02:00:08.911Z,11.60
2018-05-03T02:02:36.435Z,12.77
2018-05-03T02:05:03.985Z,11.83
2018-05-03T02:07:31.518Z,12.23
2018-05-03T02:09:59.053Z,11.10
2018-05-03T02:12:26.590Z,12.67
2018-05-03T02:14:54.914Z,11.63
2018-05-03T02:17:22.435Z,12.67
2018-05-03T02:19:50.744Z,11.83
2018-05-03T02:22:18.263Z,12.40
2018-05-03T02:24:46.564Z,13.87
2018-05-03T02:27:14.079Z,13.90
2018-05-03T02:29:41.627Z,13.73
2018-05-03T02:32:09.166Z,12.70
2018-05-03T02:34:36.697Z,11.93
2018-05-03T02:37:04.261Z,11.43
2018-05-03T02:39:31.785Z,12.70
2018-05-03T02:41:59.329Z,14.03
2018-05-03T02:44:26.863Z,14.23
2018-05-03T02:46:54.418Z,16.20
2018-05-03T02:49:21.955Z,13.33
2018-05-03T02:51:49.493Z,14.57
2018-05-03T02:54:17.020Z,13.67
2018-05-03T02:56:46.616Z,14.80
2018-05-03T02:59:25.861Z,14.80
2018-05-03T03:01:59.136Z,16.37
2018-05-03T03:04:44.053Z,13.83
2018-05-03T03:14:39.493Z,13.13
2018-05-03T03:17:24.439Z,13.80
2018-05-03T03:20:01.997Z,15.70
2018-05-03T03:22:47.177Z,14.53
2018-05-03T03:28:55.652Z,19.13
2018-05-03T03:31:40.629Z,17.10
2018-05-03T03:34:27.613Z,17.47
2018-05-03T03:37:21.568Z,16.73
2018-05-03T03:40:06.612Z,16.67
2018-05-03T03:42:34.881Z,15.50
2018-05-03T03:45:02.413Z,15.07
2018-05-03T03:47:29.961Z,17.17
2018-05-03T03:49:57.487Z,16.90
2018-05-03T03:52:24.997Z,15.83
2018-05-03T03:54:52.557Z,18.63
2018-05-03T03:57:20.105Z,16.53
2018-05-03T03:59:47.655Z,15.90
2018-05-03T04:02:15.952Z,16.10
2018-05-03T04:04:43.506Z,14.87
2018-05-03T04:07:11.060Z,15.33
2018-05-03T04:09:38.628Z,14.87
2018-05-03T04:12:06.351Z,15.83
2018-05-03T04:14:34.676Z,13.97
2018-05-03T04:17:02.219Z,16.53
2018-05-03T04:19:41.553Z,15.73
2018-05-03T04:22:20.843Z,15.40
2018-05-03T04:25:00.075Z,15.73
2018-05-03T04:27:27.606Z,13.63
2018-05-03T04:29:55.127Z,13.80
2018-05-03T04:32:22.675Z,14.63
2018-05-03T04:34:50.228Z,16.40
2018-05-03T04:37:17.786Z,16.97
2018-05-03T04:39:46.081Z,14.70
2018-05-03T04:42:13.638Z,15.17
2018-05-03T04:44:41.168Z,15.60
2018-05-03T04:47:09.504Z,14.47
2018-05-03T04:49:37.018Z,13.67
2018-05-03T04:52:04.567Z,15.10
2018-05-03T04:54:32.089Z,20.03
2018-05-03T04:56:59.631Z,22.33
2018-05-03T04:59:27.164Z,19.07
2018-05-03T05:01:54.799Z,19.20
2018-05-03T05:04:22.338Z,13.10
2018-05-03T05:06:49.907Z,13.23
2018-05-03T05:09:17.436Z,14.50
2018-05-03T05:11:44.977Z,15.03
2018-05-03T05:14:12.491Z,15.60
2018-05-03T05:16:40.796Z,15.63
2018-05-03T05:19:08.349Z,12.50
2018-05-03T05:21:35.899Z,11.50
2018-05-03T05:24:03.411Z,13.03
2018-05-03T05:26:30.948Z,14.63
2018-05-03T05:28:58.463Z,14.40
2018-05-03T05:31:25.990Z,11.50
2018-05-03T05:33:53.544Z,11.10
2018-05-03T05:36:21.076Z,11.43
2018-05-03T05:38:48.656Z,10.70
2018-05-03T05:41:16.163Z,10.00
2018-05-03T05:43:43.695Z,11.73
2018-05-03T05:46:11.212Z,11.50
2018-05-03T05:48:38.761Z,13.13
2018-05-03T05:51:06.317Z,11.07
2018-05-03T05:53:33.887Z,11.70
2018-05-03T05:56:01.421Z,10.80
2018-05-03T05:58:28.956Z,11.23
2018-05-03T06:00:56.499Z,10.23
2018-05-03T06:03:24.038Z,11.83
2018-05-03T06:05:51.573Z,13.07
2018-05-03T06:08:19.142Z,10.90
2018-05-03T06:10:46.758Z,11.60
2018-05-03T06:13:14.380Z,13.73
2018-05-03T06:15:41.921Z,11.03
2018-05-03T06:18:09.463Z,10.77
2018-05-03T06:20:36.984Z,12.90
2018-05-03T06:23:04.526Z,9.60
2018-05-03T06:25:32.052Z,12.57
2018-05-03T06:27:59.596Z,9.57
2018-05-03T06:30:27.117Z,10.47
2018-05-03T06:32:54.666Z,11.47
2018-05-03T06:35:22.200Z,10.87
2018-05-03T06:37:50.509Z,9.67
2018-05-03T06:40:18.037Z,14.13
2018-05-03T06:42:46.349Z,15.00
2018-05-03T06:45:13.929Z,13.40
2018-05-03T06:47:41.827Z,12.83
2018-05-03T06:50:10.150Z,10.03
2018-05-03T06:52:37.754Z,10.00
2018-05-03T06:55:05.299Z,18.50
2018-05-03T06:57:32.818Z,8.40
2018-05-03T07:00:00.380Z,7.57
2018-05-03T07:02:27.913Z,10.33
2018-05-03T07:04:55.447Z,11.47
2018-05-03T07:07:22.993Z,7.27
2018-05-03T07:09:50.557Z,8.93
2018-05-03T07:12:18.213Z,11.87
2018-05-03T07:14:45.745Z,10.57
2018-05-03T07:17:13.263Z,5.70
2018-05-03T07:19:40.808Z,6.57
2018-05-03T07:22:09.062Z,7.00
2018-05-03T07:24:36.600Z,5.87
2018-05-03T07:27:04.179Z,5.40
2018-05-03T07:29:31.807Z,8.47
2018-05-03T07:31:59.257Z,7.87
2018-05-03T07:34:26.788Z,7.30
2018-05-03T07:36:54.311Z,9.20
2018-05-03T07:39:21.873Z,5.83
2018-05-03T07:41:49.399Z,6.23
2018-05-03T07:44:16.933Z,8.43
2018-05-03T07:46:44.453Z,5.60
2018-05-03T07:49:11.987Z,4.83
2018-05-03T07:51:39.509Z,7.20
2018-05-03T07:54:07.043Z,8.90
2018-05-03T07:56:34.560Z,6.00
2018-05-03T07:59:02.094Z,11.33
2018-05-03T08:01:29.631Z,8.97
2018-05-03T08:03:57.144Z,5.97
2018-05-03T08:06:24.675Z,8.70
2018-05-03T08:08:52.573Z,7.57
2018-05-03T08:11:20.104Z,6.97
2018-05-03T08:13:47.620Z,6.20
2018-05-03T08:16:15.156Z,7.70
2018-05-03T08:18:42.684Z,10.17
2018-05-03T08:21:10.240Z,5.17
2018-05-03T08:23:37.949Z,7.77
2018-05-03T08:26:05.587Z,8.63
2018-05-03T08:28:34.487Z,9.43
2018-05-03T08:31:02.044Z,6.43
2018-05-03T08:33:30.320Z,8.10
2018-05-03T08:35:57.858Z,6.07
2018-05-03T08:38:28.620Z,5.43
2018-05-03T08:40:57.757Z,11.73
2018-05-03T08:43:25.300Z,5.33
2018-05-03T08:45:52.912Z,6.23
2018-05-03T08:48:20.436Z,9.17
2018-05-03T08:50:49.380Z,9.20
2018-05-03T08:53:17.107Z,7.67
2018-05-03T08:55:44.642Z,6.43
2018-05-03T08:58:13.239Z,5.90
2018-05-03T09:00:40.789Z,6.47
2018-05-03T09:03:08.308Z,7.00
2018-05-03T09:05:35.842Z,5.93
2018-05-03T09:08:03.380Z,8.67
2018-05-03T09:10:30.919Z,6.23
2018-05-03T09:12:58.462Z,7.43
2018-05-03T09:15:26.000Z,5.20
2018-05-03T09:17:54.438Z,6.27
2018-05-03T09:20:21.984Z,6.03
2018-05-03T09:22:49.516Z,7.37
2018-05-03T09:25:17.047Z,9.17
2018-05-03T09:27:44.599Z,7.70
2018-05-03T09:30:12.147Z,6.00
2018-05-03T09:32:39.692Z,5.17
2018-05-03T09:35:07.980Z,8.37
2018-05-03T09:37:35.627Z,8.47
2018-05-03T09:40:03.225Z,5.80
2018-05-03T09:42:30.781Z,5.93
2018-05-03T09:44:58.298Z,7.50
2018-05-03T09:47:26.602Z,6.73
2018-05-03T09:49:54.159Z,7.93
2018-05-03T09:52:21.780Z,7.60
2018-05-03T09:54:49.297Z,6.57
2018-05-03T09:57:16.829Z,8.03
2018-05-03T09:59:44.356Z,6.67
2018-05-03T10:02:11.901Z,7.00
2018-05-03T10:04:39.426Z,7.40
2018-05-03T10:07:06.970Z,4.53
2018-05-03T10:09:34.497Z,7.33
2018-05-03T10:12:02.825Z,7.70
2018-05-03T10:14:30.351Z,7.17
2018-05-03T10:16:57.885Z,7.00
2018-05-03T10:19:25.418Z,9.30
2018-05-03T10:21:52.959Z,6.40
2018-05-03T10:24:20.487Z,5.87
2018-05-03T10:26:48.058Z,6.07
2018-05-03T10:29:15.578Z,6.77
2018-05-03T10:31:43.100Z,5.73
2018-05-03T10:34:10.634Z,11.77
2018-05-03T10:36:38.155Z,8.73
2018-05-03T10:39:05.699Z,7.30
2018-05-03T10:41:33.983Z,9.93
2018-05-03T10:44:01.909Z,7.37
2018-05-03T10:46:29.433Z,5.97
2018-05-03T10:48:57.071Z,10.10
2018-05-03T10:51:24.520Z,8.60
2018-05-03T10:53:52.815Z,7.20
2018-05-03T10:56:20.350Z,7.77
2018-05-03T10:58:47.911Z,6.20
2018-05-03T11:01:16.226Z,7.83
2018-05-03T11:03:43.756Z,8.67
2018-05-03T11:06:11.291Z,7.07
2018-05-03T11:08:38.824Z,7.30
2018-05-03T11:11:06.399Z,6.60
2018-05-03T11:13:34.045Z,6.20
2018-05-03T11:16:01.556Z,5.53
2018-05-03T11:18:29.107Z,6.63
2018-05-03T11:20:57.400Z,8.37
2018-05-03T11:23:24.931Z,8.50
2018-05-03T11:25:53.234Z,6.23
2018-05-03T11:28:20.780Z,9.47
2018-05-03T11:30:48.300Z,16.20
2018-05-03T11:33:15.846Z,11.90
2018-05-03T11:35:43.359Z,7.60
2018-05-03T11:38:10.887Z,7.27
2018-05-03T11:40:38.399Z,10.63
2018-05-03T11:43:05.959Z,6.60
2018-05-03T11:45:33.479Z,7.87
2018-05-03T11:48:01.004Z,6.00
2018-05-03T11:50:28.531Z,6.23
2018-05-03T11:52:56.054Z,11.27
2018-05-03T11:55:23.906Z,7.80
2018-05-03T11:57:52.199Z,7.53
2018-05-03T12:00:19.728Z,7.00
2018-05-03T12:02:47.248Z,7.20
2018-05-03T12:05:14.778Z,9.13
2018-05-03T12:07:42.293Z,9.77
2018-05-03T12:10:09.839Z,7.23
2018-05-03T12:12:37.352Z,10.30
2018-05-03T12:15:04.905Z,10.93
2018-05-03T12:17:32.468Z,13.27
2018-05-03T12:20:00.022Z,8.30
2018-05-03T12:22:27.539Z,8.47
2018-05-03T12:24:55.068Z,8.70
2018-05-03T12:27:22.591Z,8.03
2018-05-03T12:29:50.128Z,7.57
2018-05-03T12:32:17.647Z,11.73
2018-05-03T12:34:45.190Z,8.80
2018-05-03T12:37:12.717Z,7.27
2018-05-03T12:39:40.255Z,8.03
2018-05-03T12:42:08.092Z,8.67
2018-05-03T12:44:35.726Z,12.03
2018-05-03T12:47:03.244Z,7.37
2018-05-03T12:49:30.787Z,11.47
2018-05-03T12:51:59.078Z,6.40
2018-05-03T12:54:27.400Z,6.40
2018-05-03T12:56:54.916Z,6.60
2018-05-03T12:59:22.442Z,8.97
2018-05-03T13:01:49.989Z,7.00
2018-05-03T13:04:17.515Z,6.57
2018-05-03T13:06:45.056Z,9.20
2018-05-03T13:09:12.588Z,10.77
2018-05-03T13:11:40.921Z,5.93
2018-05-03T13:14:08.457Z,4.77
2018-05-03T13:16:35.991Z,6.17
2018-05-03T13:19:03.518Z,5.60
2018-05-03T13:21:31.121Z,10.63
2018-05-03T13:23:58.649Z,18.23
2018-05-03T13:26:26.201Z,40.63
2018-05-03T13:28:53.733Z,6.73
2018-05-03T13:31:21.271Z,23.23
2018-05-03T13:33:48.794Z,6.03
2018-05-03T13:36:17.093Z,20.00
2018-05-03T13:38:44.612Z,11.43
2018-05-03T13:41:12.264Z,10.83
2018-05-03T13:43:39.725Z,5.87
2018-05-03T13:46:07.305Z,5.93
2018-05-03T13:48:35.583Z,8.17
2018-05-03T13:51:03.919Z,6.20
2018-05-03T13:53:31.455Z,4.20
2018-05-03T13:55:58.990Z,5.27
2018-05-03T13:58:26.529Z,3.77
2018-05-03T14:00:54.109Z,3.80
2018-05-03T14:03:22.465Z,5.27
2018-05-03T14:05:50.804Z,6.13
2018-05-03T14:08:19.130Z,6.03
2018-05-03T14:10:46.716Z,4.47
2018-05-03T14:13:14.248Z,3.70
2018-05-03T14:15:41.782Z,4.27
2018-05-03T14:18:10.093Z,5.97
2018-05-03T14:20:37.620Z,10.33
2018-05-03T14:23:05.148Z,6.43
2018-05-03T14:25:32.674Z,5.47
2018-05-03T14:28:00.232Z,5.90
2018-05-03T14:30:27.769Z,5.30
2018-05-03T14:32:55.313Z,6.83
2018-05-03T14:35:23.625Z,6.17
2018-05-03T14:37:51.934Z,6.03
2018-05-03T14:40:19.507Z,4.93
2018-05-03T14:42:47.044Z,5.00
2018-05-03T14:45:14.772Z,5.70
2018-05-03T14:47:42.316Z,4.33
2018-05-03T14:50:09.839Z,3.37
2018-05-03T14:52:37.377Z,4.83
2018-05-03T14:55:04.926Z,7.23
2018-05-03T14:57:32.467Z,5.00
2018-05-03T15:00:00.022Z,6.20
2018-05-03T15:02:28.351Z,4.83
2018-05-03T15:04:55.866Z,6.47
2018-05-03T15:07:24.198Z,4.83
2018-05-03T15:09:51.755Z,7.17
2018-05-03T15:12:19.424Z,3.50
2018-05-03T15:14:46.990Z,5.57
2018-05-03T15:17:14.523Z,3.57
2018-05-03T15:19:42.079Z,4.87
2018-05-03T15:22:09.614Z,9.00
2018-05-03T15:24:37.145Z,4.30
2018-05-03T15:27:04.697Z,5.70
2018-05-03T15:29:32.247Z,4.17
2018-05-03T15:31:59.761Z,4.80
2018-05-03T15:34:27.304Z,3.73
2018-05-03T15:36:54.878Z,3.97
2018-05-03T15:39:22.454Z,3.83
2018-05-03T15:41:49.991Z,5.27
2018-05-03T15:44:17.556Z,5.80
2018-05-03T15:46:45.763Z,5.10
2018-05-03T15:49:14.191Z,4.13
2018-05-03T15:51:41.760Z,6.53
2018-05-03T15:54:10.108Z,5.50
2018-05-03T15:56:37.643Z,4.43
2018-05-03T15:59:05.198Z,5.07
2018-05-03T16:01:32.727Z,4.37
2018-05-03T16:04:00.300Z,7.93
2018-05-03T16:06:27.817Z,4.53
2018-05-03T16:08:55.364Z,4.80
2018-05-03T16:11:22.898Z,12.23
2018-05-03T16:13:50.440Z,5.07
2018-05-03T16:16:17.960Z,5.10
2018-05-03T16:18:45.779Z,4.10
2018-05-03T16:21:13.296Z,3.53
2018-05-03T16:23:40.858Z,5.07
2018-05-03T16:26:08.462Z,5.37
2018-05-03T16:28:35.999Z,5.27
2018-05-03T16:31:03.519Z,5.03
2018-05-03T16:33:31.058Z,4.83
2018-05-03T16:35:58.608Z,5.63
2018-05-03T16:38:26.124Z,7.47
2018-05-03T16:40:53.675Z,6.63
2018-05-03T16:43:21.403Z,7.47
2018-05-03T16:45:48.947Z,6.13
2018-05-03T16:48:16.471Z,8.33
2018-05-03T16:50:44.018Z,5.53
2018-05-03T16:53:11.561Z,9.83
2018-05-03T16:55:39.167Z,5.43
2018-05-03T16:58:06.698Z,6.70
2018-05-03T17:00:34.238Z,5.03
2018-05-03T17:03:01.776Z,6.97
2018-05-03T17:05:29.315Z,3.87
2018-05-03T17:07:56.849Z,6.70
2018-05-03T17:10:24.436Z,6.13
2018-05-03T17:12:52.387Z,4.90
2018-05-03T17:15:19.926Z,5.10
2018-05-03T17:17:47.462Z,4.50
2018-05-03T17:20:14.999Z,3.80
2018-05-03T17:22:42.529Z,3.50
2018-05-03T17:25:10.074Z,4.43
2018-05-03T17:27:37.617Z,3.83
2018-05-03T17:30:05.163Z,6.50
2018-05-03T17:32:32.687Z,7.53
2018-05-03T17:35:00.239Z,4.63
2018-05-03T17:37:27.761Z,3.40
2018-05-03T17:39:55.292Z,6.93
2018-05-03T17:42:22.824Z,5.30
2018-05-03T17:44:51.120Z,3.07
2018-05-03T17:47:18.644Z,2.80
2018-05-03T17:49:46.183Z,9.77
2018-05-03T17:52:13.715Z,5.00
2018-05-03T17:54:41.223Z,5.23
2018-05-03T17:57:10.764Z,7.57
2018-05-03T17:59:38.288Z,6.57
2018-05-03T18:02:05.827Z,4.67
2018-05-03T18:04:33.417Z,3.70
2018-05-03T18:07:00.930Z,7.33
2018-05-03T18:09:28.472Z,5.07
2018-05-03T18:11:56.019Z,4.23
2018-05-03T18:14:23.547Z,10.00
2018-05-03T18:16:51.895Z,3.50
2018-05-03T18:19:20.198Z,3.40
2018-05-03T18:21:47.735Z,2.93
2018-05-03T18:24:15.268Z,4.70
2018-05-03T18:26:42.804Z,4.23
2018-05-03T18:29:10.316Z,6.37
2018-05-03T18:31:37.853Z,3.70
2018-05-03T18:34:05.365Z,3.93
2018-05-03T18:36:32.901Z,3.93
2018-05-03T18:39:01.184Z,8.03
2018-05-03T18:41:28.716Z,5.67
2018-05-03T18:43:56.273Z,2.23
2018-05-03T18:46:23.797Z,4.37
2018-05-03T18:48:51.337Z,4.23
2018-05-03T18:51:18.867Z,4.30
2018-05-03T18:53:47.185Z,2.70
2018-05-03T18:56:14.722Z,3.53
2018-05-03T18:58:42.253Z,4.50
2018-05-03T19:01:09.771Z,4.73
2018-05-03T19:03:37.328Z,3.80
2018-05-03T19:06:04.862Z,3.13
2018-05-03T19:08:32.403Z,1.97
2018-05-03T19:10:59.945Z,2.63
2018-05-03T19:13:27.486Z,5.43
2018-05-03T19:15:55.009Z,3.67
2018-05-03T19:18:22.550Z,5.37
2018-05-03T19:20:50.105Z,4.40
2018-05-03T19:23:17.685Z,2.93
2018-05-03T19:25:45.400Z,2.77
2018-05-03T19:28:12.953Z,2.97
2018-05-03T19:30:40.497Z,3.20
2018-05-03T19:33:08.156Z,2.60
2018-05-03T19:35:35.740Z,4.43
2018-05-03T19:38:03.223Z,2.80
2018-05-03T19:40:30.759Z,3.53
2018-05-03T19:42:58.313Z,3.63
2018-05-03T19:45:25.904Z,4.03
2018-05-03T19:47:53.455Z,2.97
2018-05-03T19:50:20.985Z,3.37
2018-05-03T19:52:48.544Z,5.20
2018-05-03T19:55:16.076Z,3.23
2018-05-03T19:57:43.624Z,2.20
2018-05-03T20:00:11.159Z,2.73
2018-05-03T20:02:41.505Z,3.00
2018-05-03T20:05:09.077Z,4.53
2018-05-03T20:07:36.605Z,2.77
2018-05-03T20:10:04.926Z,4.53
2018-05-03T20:12:32.443Z,5.50
2018-05-03T20:14:59.983Z,3.23
2018-05-03T20:17:27.527Z,2.17
2018-05-03T20:19:55.059Z,2.90
2018-05-03T20:22:22.576Z,2.70
2018-05-03T20:24:50.204Z,3.40
2018-05-03T20:27:17.678Z,2.73
2018-05-03T20:29:45.277Z,2.80
2018-05-03T20:32:13.588Z,3.87
2018-05-03T20:34:41.189Z,2.90
2018-05-03T20:37:08.703Z,3.57
2018-05-03T20:39:36.260Z,2.37
2018-05-03T20:42:03.797Z,3.63
2018-05-03T20:44:32.134Z,5.33
2018-05-03T20:46:59.671Z,2.57
2018-05-03T20:49:27.203Z,4.77
2018-05-03T20:51:54.779Z,2.37
2018-05-03T20:54:22.331Z,3.50
2018-05-03T20:56:49.847Z,3.80
2018-05-03T20:59:17.576Z,5.10
2018-05-03T21:01:45.091Z,3.30
2018-05-03T21:04:12.692Z,3.50
2018-05-03T21:06:44.155Z,4.00
2018-05-03T21:09:11.698Z,1.97
2018-05-03T21:11:39.239Z,3.83
2018-05-03T21:14:06.755Z,5.13
2018-05-03T21:16:35.051Z,3.30
2018-05-03T21:19:02.577Z,2.30
2018-05-03T21:21:30.124Z,5.17
2018-05-03T21:23:57.655Z,3.07
2018-05-03T21:26:25.284Z,4.73
2018-05-03T21:28:52.719Z,4.00
2018-05-03T21:31:20.267Z,4.07
2018-05-03T21:33:48.607Z,3.17
2018-05-03T21:36:16.107Z,4.33
2018-05-03T21:38:44.387Z,4.03
2018-05-03T21:41:11.949Z,2.77
2018-05-03T21:43:39.485Z,4.37
2018-05-03T21:46:07.035Z,2.90
2018-05-03T21:48:35.012Z,3.33
2018-05-03T21:51:02.575Z,4.07
2018-05-03T21:53:30.097Z,3.80
2018-05-03T21:55:57.639Z,4.53
2018-05-03T21:58:25.145Z,2.27
2018-05-03T22:00:52.694Z,2.50
2018-05-03T22:03:20.209Z,4.73
2018-05-03T22:05:47.740Z,4.87
2018-05-03T22:08:15.292Z,2.50
2018-05-03T22:10:43.591Z,5.07
2018-05-03T22:13:11.107Z,4.27
2018-05-03T22:15:38.657Z,6.03
2018-05-03T22:18:07.687Z,3.83
2018-05-03T22:20:35.248Z,4.40
2018-05-03T22:23:02.782Z,3.37
2018-05-03T22:25:30.301Z,3.70
2018-05-03T22:27:57.835Z,4.10
2018-05-03T22:30:25.343Z,3.37
2018-05-03T22:32:52.862Z,5.10
2018-05-03T22:35:20.372Z,3.33
2018-05-03T22:37:48.660Z,4.03
2018-05-03T22:40:16.942Z,5.77
2018-05-03T22:42:44.479Z,3.83
2018-05-03T22:45:12.765Z,3.83
2018-05-03T22:47:40.303Z,7.20
2018-05-03T22:50:07.816Z,4.87
2018-05-03T22:52:35.351Z,3.50
2018-05-03T22:55:02.871Z,4.97
2018-05-03T22:57:30.396Z,3.03
2018-05-03T22:59:57.912Z,3.53
2018-05-03T23:02:25.437Z,3.07
2018-05-03T23:04:52.948Z,4.33
2018-05-03T23:07:20.497Z,3.20
2018-05-03T23:09:48.010Z,3.80
2018-05-03T23:12:15.552Z,3.50
2018-05-03T23:14:43.070Z,8.03
2018-05-03T23:17:11.519Z,5.23
2018-05-03T23:19:39.024Z,6.23
2018-05-03T23:22:06.565Z,5.60
2018-05-03T23:24:34.082Z,2.50
2018-05-03T23:27:01.616Z,3.07
2018-05-03T23:29:29.132Z,4.17
2018-05-03T23:31:56.663Z,3.90
2018-05-03T23:34:24.957Z,8.60
2018-05-03T23:36:52.487Z,3.10
2018-05-03T23:39:20.011Z,4.97
2018-05-03T23:41:47.530Z,3.23
2018-05-03T23:44:15.058Z,5.00
2018-05-03T23:46:42.575Z,4.57
2018-05-03T23:49:10.100Z,3.00
2018-05-03T23:51:37.608Z,4.80
2018-05-03T23:54:05.143Z,3.33
2018-05-03T23:56:32.658Z,5.10
2018-05-03T23:59:00.201Z,5.30
